.
WxDataArchive / Data Records for 2014-07-15
2014-07-14 July 2014 2014-07-16

Data Records for Tuesday, 15 July 2014

Time	Temp	Chill	HIndex	Humid	Dewpt	 Wind 	HiWind	WindDir	Rain 	Barom
-----	----	-----	------	-----	-----	------	------	-------	-----	-----
00:00	66.3	66.3	66.3	91	63.6	0	2	292	0.00	29.742 
00:05	66.1	66.1	66.1	91	63.4	0	1	292	0.00	29.742 
00:10	66.1	66.1	66.1	91	63.4	0	1	292	0.00	29.742 
00:15	66.1	66.1	66.1	92	63.7	0	0	---	0.00	29.741 
00:20	66.1	66.1	66.1	92	63.7	0	2	292	0.00	29.741 
00:25	66.1	66.1	66.1	92	63.7	1	3	292	0.00	29.741 
00:30	66.1	66.1	66.1	92	63.7	0	2	292	0.00	29.743 
00:35	66.0	66.0	66.0	92	63.6	0	3	292	0.00	29.743 
00:40	66.0	66.0	66.0	92	63.6	0	3	292	0.00	29.743 
00:45	66.0	66.0	66.0	92	63.6	0	2	292	0.00	29.744 
00:50	65.8	65.8	65.8	92	63.4	0	1	292	0.00	29.744 
00:55	65.8	65.8	65.8	92	63.4	0	1	292	0.00	29.744 
01:00	65.6	65.6	65.6	92	63.2	0	0	---	0.00	29.744 
01:05	65.6	65.6	65.6	92	63.2	0	1	292	0.00	29.744 
01:10	65.5	65.5	65.5	92	63.1	0	0	---	0.00	29.744 
01:15	65.3	65.3	65.3	92	62.9	0	0	---	0.00	29.743 
01:20	65.3	65.3	65.3	92	62.9	0	1	292	0.00	29.743 
01:25	65.2	65.2	65.2	92	62.8	0	2	292	0.00	29.743 
01:30	65.2	65.2	65.2	92	62.8	0	1	292	0.00	29.745 
01:35	65.2	65.2	65.2	92	62.8	0	1	292	0.00	29.745 
01:40	65.0	65.0	65.0	92	62.6	0	1	292	0.00	29.745 
01:45	65.0	65.0	65.0	92	62.6	0	2	292	0.00	29.744 
01:50	64.8	64.8	64.8	92	62.4	0	1	292	0.00	29.744 
01:55	64.8	64.8	64.8	92	62.4	1	4	292	0.00	29.744 
02:00	64.7	64.7	64.7	92	62.3	0	4	292	0.00	29.739 
02:05	64.7	64.7	64.7	92	62.3	0	2	292	0.00	29.739 
02:10	64.7	64.7	64.7	92	62.3	0	3	292	0.00	29.739 
02:15	64.7	64.7	64.7	92	62.3	1	3	292	0.00	29.739 
02:20	64.5	64.5	64.5	92	62.1	0	3	292	0.00	29.739 
02:25	64.5	64.5	64.5	92	62.1	1	3	292	0.00	29.739 
02:30	64.5	64.5	64.5	92	62.1	0	3	292	0.00	29.740 
02:35	64.5	64.5	64.5	92	62.1	1	3	292	0.00	29.740 
02:40	64.3	64.3	64.3	92	61.9	0	2	292	0.00	29.740 
02:45	64.3	64.3	64.3	92	61.9	0	3	292	0.00	29.742 
02:50	64.3	64.3	64.3	92	61.9	0	2	292	0.00	29.742 
02:55	64.3	64.3	64.3	92	61.9	0	2	292	0.00	29.742 
03:00	64.2	64.2	64.2	92	61.8	0	2	292	0.00	29.744 
03:05	64.2	64.2	64.2	92	61.8	0	1	292	0.00	29.744 
03:10	64.0	64.0	64.0	92	61.6	0	1	292	0.00	29.744 
03:15	64.0	64.0	64.0	92	61.6	0	2	292	0.00	29.747 
03:20	63.9	63.9	63.9	92	61.5	0	2	292	0.00	29.747 
03:25	63.9	63.9	63.9	92	61.5	0	2	292	0.00	29.747 
03:30	63.9	63.9	63.9	92	61.5	1	3	292	0.00	29.753 
03:35	63.9	63.9	63.9	92	61.5	0	2	292	0.00	29.753 
03:40	63.9	63.9	63.9	92	61.5	1	3	292	0.00	29.753 
03:45	63.7	63.7	63.7	91	61.0	1	3	292	0.00	29.754 
03:50	63.5	63.5	63.5	91	60.8	1	3	292	0.00	29.754 
03:55	63.4	63.4	63.4	91	60.7	1	4	292	0.00	29.754 
04:00	63.2	63.2	63.2	90	60.2	1	2	292	0.00	29.748 
04:05	63.1	63.1	63.1	90	60.1	1	4	292	0.00	29.748 
04:10	62.9	62.9	62.9	90	59.9	1	5	292	0.00	29.748 
04:15	62.6	62.6	62.6	89	59.3	1	4	292	0.00	29.754 
04:20	62.4	62.4	62.4	89	59.1	1	3	292	0.00	29.754 
04:25	62.4	62.4	62.4	88	58.8	1	3	292	0.00	29.754 
04:30	62.1	62.1	62.1	87	58.2	1	3	292	0.00	29.760 
04:35	62.1	62.1	62.1	86	57.9	1	4	292	0.00	29.760 
04:40	62.1	62.1	62.1	86	57.9	0	1	292	0.00	29.760 
04:45	62.0	62.0	62.0	87	58.1	0	3	292	0.00	29.762 
04:50	62.0	62.0	62.0	87	58.1	1	3	292	0.00	29.762 
04:55	61.8	61.8	61.8	87	57.9	1	3	292	0.00	29.762 
05:00	61.6	61.6	61.6	87	57.7	0	3	292	0.00	29.761 
05:05	61.5	61.5	61.5	87	57.6	1	3	292	0.00	29.761 
05:10	61.3	61.3	61.3	87	57.4	1	3	292	0.00	29.761 
05:15	61.2	61.2	61.2	86	57.0	0	2	292	0.00	29.771 
05:20	60.9	60.9	60.9	86	56.7	0	3	292	0.00	29.771 
05:25	60.7	60.7	60.7	86	56.5	0	2	292	0.00	29.771 
05:30	60.5	60.5	60.5	86	56.3	0	2	292	0.00	29.770 
05:35	60.4	60.4	60.4	86	56.2	0	1	292	0.00	29.770 
05:40	60.2	60.2	60.2	86	56.0	0	2	292	0.00	29.770 
05:45	60.1	60.1	60.1	87	56.2	0	2	292	0.00	29.776 
05:50	59.9	59.9	59.9	87	56.0	0	1	292	0.00	29.776 
05:55	59.8	59.8	59.8	87	55.9	0	2	292	0.00	29.776 
06:00	59.6	59.6	59.6	87	55.7	0	1	292	0.00	29.777 
06:05	59.5	59.5	59.5	87	55.6	0	2	292	0.00	29.777 
06:10	59.3	59.3	59.3	87	55.4	0	0	---	0.00	29.777 
06:15	59.2	59.2	59.2	87	55.3	0	1	292	0.00	29.778 
06:20	59.2	59.2	59.2	87	55.3	0	2	292	0.00	29.778 
06:25	59.0	59.0	59.0	87	55.1	0	2	292	0.00	29.778 
06:30	58.9	58.9	58.9	87	55.0	0	2	292	0.00	29.785 
06:35	58.9	58.9	58.9	87	55.0	0	1	292	0.00	29.785 
06:40	58.7	58.7	58.7	87	54.8	0	1	292	0.00	29.785 
06:45	58.7	58.7	58.7	87	54.8	0	0	---	0.00	29.784 
06:50	58.7	58.7	58.7	87	54.8	0	1	292	0.00	29.784 
06:55	58.7	58.7	58.7	87	54.8	0	1	292	0.00	29.784 
07:00	58.7	58.7	58.7	87	54.8	0	1	292	0.00	29.790 
07:05	58.7	58.7	58.7	87	54.8	0	1	292	0.00	29.790 
07:10	58.9	58.9	58.9	87	55.0	0	2	292	0.00	29.790 
07:15	59.2	59.2	59.2	87	55.3	0	1	292	0.00	29.792 
07:20	59.2	59.2	59.2	87	55.3	0	2	292	0.00	29.792 
07:25	59.5	59.5	59.5	87	55.6	1	3	292	0.00	29.792 
07:30	59.6	59.6	59.6	86	55.4	1	3	292	0.00	29.793 
07:35	59.8	59.8	59.8	85	55.3	1	4	292	0.00	29.793 
07:40	60.1	60.1	60.1	85	55.6	1	2	292	0.00	29.793 
07:45	60.2	60.2	60.2	84	55.3	1	3	292	0.00	29.802 
07:50	60.4	60.4	60.4	83	55.2	2	5	292	0.00	29.802 
07:55	60.5	60.5	60.5	82	55.0	2	5	270	0.00	29.802 
08:00	60.7	60.7	60.7	81	54.8	2	4	270	0.00	29.801 
08:05	60.9	60.9	60.9	81	55.0	2	5	270	0.00	29.801 
08:10	61.2	61.2	61.2	80	55.0	2	5	270	0.00	29.801 
08:15	61.5	61.5	61.5	80	55.3	2	4	270	0.00	29.801 
08:20	61.5	61.5	61.5	79	54.9	2	6	270	0.00	29.801 
08:25	61.8	61.8	61.8	79	55.2	2	7	270	0.00	29.801 
08:30	61.8	61.8	61.8	78	54.9	3	7	292	0.00	29.804 
08:35	62.0	62.0	62.0	78	55.1	2	5	315	0.00	29.804 
08:40	62.0	62.0	62.0	77	54.7	2	6	292	0.00	29.804 
08:45	62.1	62.1	62.1	77	54.8	3	5	292	0.00	29.804 
08:50	62.3	62.3	62.3	76	54.6	2	6	292	0.00	29.804 
08:55	62.6	62.6	62.6	76	54.9	1	4	292	0.00	29.804 
09:00	62.7	62.7	62.7	75	54.7	3	5	292	0.00	29.804 
09:05	62.9	62.9	62.9	75	54.8	2	5	270	0.00	29.804 
09:10	63.1	63.1	63.1	76	55.4	2	4	292	0.00	29.804 
09:15	63.1	63.1	63.1	74	54.7	3	7	270	0.00	29.806 
09:20	62.7	62.7	62.7	75	54.7	3	6	315	0.00	29.806 
09:25	62.6	62.6	62.6	77	55.3	1	4	270	0.00	29.806 
09:30	63.2	63.2	63.2	75	55.1	2	6	270	0.00	29.812 
09:35	63.1	63.1	63.1	73	54.3	3	6	270	0.00	29.812 
09:40	63.1	63.1	63.1	73	54.3	2	5	270	0.00	29.812 
09:45	63.4	63.4	63.4	71	53.8	2	5	270	0.00	29.819 
09:50	64.0	64.0	64.0	71	54.4	1	5	270	0.00	29.819 
09:55	64.3	64.3	64.3	69	53.9	2	7	270	0.00	29.819 
10:00	64.7	64.7	64.7	69	54.3	1	3	270	0.00	29.819 
10:05	64.5	64.5	64.5	67	53.3	3	4	270	0.00	29.819 
10:10	64.2	64.2	64.2	68	53.4	2	4	270	0.00	29.819 
10:15	64.7	64.7	64.7	66	53.1	3	5	270	0.00	29.819 
10:20	64.7	64.7	64.7	67	53.5	1	3	270	0.00	29.819 
10:25	64.3	64.3	64.3	65	52.3	2	4	270	0.00	29.819 
10:30	64.5	64.5	64.5	67	53.3	2	4	270	0.00	29.818 
10:35	65.5	65.5	65.5	67	54.2	1	3	270	0.00	29.818 
10:40	66.3	66.3	66.3	64	53.7	1	4	270	0.00	29.818 
10:45	66.1	66.1	66.1	61	52.3	2	6	270	0.00	29.815 
10:50	65.5	65.5	65.5	61	51.7	3	6	292	0.00	29.815 
10:55	65.2	65.2	65.2	63	52.3	2	5	270	0.00	29.815 
11:00	65.3	65.3	65.3	64	52.8	3	6	292	0.00	29.819 
11:05	65.2	65.2	65.2	62	51.8	3	7	270	0.00	29.819 
11:10	65.2	65.2	65.2	62	51.8	3	9	270	0.00	29.819 
11:15	65.5	65.5	65.5	58	50.3	4	7	270	0.00	29.821 
11:20	65.2	65.2	65.2	59	50.5	4	9	270	0.00	29.821 
11:25	65.2	65.2	65.2	60	51.0	3	7	292	0.00	29.821 
11:30	65.5	65.5	65.5	59	50.8	4	11	270	0.00	29.827 
11:35	66.0	66.0	66.0	56	49.8	3	6	270	0.00	29.827 
11:40	66.1	66.1	66.1	56	49.9	3	6	292	0.00	29.827 
11:45	65.3	65.3	65.3	57	49.7	4	9	270	0.00	29.827 
11:50	65.2	65.2	65.2	59	50.5	3	6	292	0.00	29.827 
11:55	66.0	66.0	66.0	58	50.8	3	6	270	0.00	29.827 
12:00	66.8	66.8	66.8	57	51.1	2	5	292	0.00	29.825 
12:05	67.6	67.6	67.6	54	50.4	2	4	292	0.00	29.825 
12:10	67.9	67.9	67.9	52	49.6	2	5	292	0.00	29.825 
12:15	67.8	67.8	67.8	51	49.0	3	6	292	0.00	29.823 
12:20	68.1	68.1	68.1	53	50.3	1	4	292	0.00	29.823 
12:25	67.9	67.9	67.9	52	49.6	3	10	270	0.00	29.823 
12:30	67.8	67.8	67.8	55	51.0	2	6	270	0.00	29.823 
12:35	67.4	67.4	67.4	54	50.2	4	7	270	0.00	29.823 
12:40	67.1	67.1	67.1	54	49.9	3	6	270	0.00	29.823 
12:45	66.8	66.8	66.8	56	50.6	3	6	270	0.00	29.829 
12:50	66.6	66.6	66.6	57	50.9	3	7	270	0.00	29.829 
12:55	67.3	67.3	67.3	57	51.5	3	7	270	0.00	29.829 
13:00	66.9	66.9	66.9	56	50.7	3	6	315	0.00	29.837 
13:05	66.6	66.6	66.6	56	50.4	4	7	292	0.00	29.837 
13:10	67.1	67.1	67.1	57	51.3	2	7	338	0.00	29.837 
13:15	67.3	67.3	67.3	56	51.1	3	6	292	0.00	29.836 
13:20	67.4	67.4	67.4	53	49.7	3	6	292	0.00	29.836 
13:25	66.8	66.8	66.8	55	50.1	3	10	292	0.00	29.836 
13:30	65.6	65.6	65.6	54	48.5	4	9	270	0.00	29.842 
13:35	65.3	65.3	65.3	56	49.2	3	6	270	0.00	29.842 
13:40	66.0	66.0	66.0	56	49.8	3	6	292	0.00	29.842 
13:45	65.8	65.8	65.8	56	49.7	3	6	292	0.00	29.840 
13:50	65.8	65.8	65.8	56	49.7	3	7	270	0.00	29.840 
13:55	66.8	66.8	66.8	54	49.6	3	7	270	0.00	29.840 
14:00	66.6	66.6	66.6	54	49.4	2	6	270	0.00	29.837 
14:05	66.3	66.3	66.3	55	49.6	4	10	270	0.00	29.837 
14:10	65.8	65.8	65.8	57	50.1	3	7	315	0.00	29.837 
14:15	65.6	65.6	65.6	54	48.5	4	7	270	0.00	29.848 
14:20	66.0	66.0	66.0	56	49.8	2	6	292	0.00	29.848 
14:25	67.3	67.3	67.3	58	52.0	3	6	292	0.00	29.848 
14:30	67.9	67.9	67.9	54	50.6	4	9	270	0.00	29.849 
14:35	67.6	67.6	67.6	54	50.4	4	11	338	0.00	29.849 
14:40	67.1	67.1	67.1	54	49.9	3	6	270	0.00	29.849 
14:45	67.1	67.1	67.1	54	49.9	3	7	315	0.00	29.854 
14:50	67.6	67.6	67.6	53	49.9	3	6	292	0.00	29.854 
14:55	68.6	68.6	68.6	54	51.3	3	5	270	0.00	29.854 
15:00	68.8	68.8	68.8	51	49.9	3	7	270	0.00	29.853 
15:05	68.4	68.4	68.4	51	49.6	3	9	292	0.00	29.853 
15:10	68.3	68.3	68.3	54	51.0	3	6	270	0.00	29.853 
15:15	67.9	67.9	67.9	50	48.6	3	9	292	0.00	29.857 
15:20	67.3	67.3	67.3	51	48.5	3	6	270	0.00	29.857 
15:25	67.3	67.3	67.3	52	49.1	3	5	292	0.00	29.857 
15:30	66.8	66.8	66.8	54	49.6	2	5	270	0.00	29.857 
15:35	66.4	66.4	66.4	55	49.7	2	4	315	0.00	29.857 
15:40	66.0	66.0	66.0	56	49.8	3	6	270	0.00	29.857 
15:45	65.5	65.5	65.5	57	49.9	3	6	315	0.00	29.863 
15:50	65.3	65.3	65.3	58	50.1	2	6	315	0.00	29.863 
15:55	65.5	65.5	65.5	58	50.3	2	6	270	0.00	29.863 
16:00	66.1	66.1	66.1	58	50.9	1	4	270	0.00	29.861 
16:05	66.6	66.6	66.6	55	49.9	2	5	292	0.00	29.861 
16:10	66.6	66.6	66.6	55	49.9	2	6	338	0.00	29.861 
16:15	66.4	66.4	66.4	56	50.2	1	6	315	0.00	29.863 
16:20	65.8	65.8	65.8	54	48.7	3	5	315	0.00	29.863 
16:25	65.6	65.6	65.6	54	48.5	2	6	292	0.00	29.863 
16:30	65.6	65.6	65.6	56	49.5	2	6	315	0.00	29.861 
16:35	65.8	65.8	65.8	55	49.2	2	4	270	0.00	29.861 
16:40	66.1	66.1	66.1	55	49.5	2	5	292	0.00	29.861 
16:45	66.1	66.1	66.1	55	49.5	3	7	270	0.00	29.867 
16:50	66.0	66.0	66.0	56	49.8	3	5	270	0.00	29.867 
16:55	65.6	65.6	65.6	57	49.9	2	5	315	0.00	29.867 
17:00	65.6	65.6	65.6	58	50.4	3	6	270	0.00	29.870 
17:05	66.1	66.1	66.1	59	51.3	1	4	270	0.00	29.870 
17:10	66.8	66.8	66.8	58	51.5	2	5	292	0.00	29.870 
17:15	66.8	66.8	66.8	56	50.6	2	5	292	0.00	29.870 
17:20	66.9	66.9	66.9	55	50.2	3	9	292	0.00	29.870 
17:25	67.1	67.1	67.1	56	50.9	2	5	270	0.00	29.870 
17:30	66.9	66.9	66.9	56	50.7	3	6	292	0.00	29.872 
17:35	66.8	66.8	66.8	55	50.1	3	5	315	0.00	29.872 
17:40	66.9	66.9	66.9	57	51.2	2	5	270	0.00	29.872 
17:45	67.3	67.3	67.3	55	50.6	3	7	270	0.00	29.871 
17:50	67.9	67.9	67.9	55	51.1	3	7	270	0.00	29.871 
17:55	67.4	67.4	67.4	54	50.2	3	6	292	0.00	29.871 
18:00	66.9	66.9	66.9	56	50.7	2	6	270	0.00	29.872 
18:05	66.8	66.8	66.8	54	49.6	3	5	270	0.00	29.872 
18:10	66.8	66.8	66.8	56	50.6	3	5	315	0.00	29.872 
18:15	67.3	67.3	67.3	56	51.1	2	4	292	0.00	29.872 
18:20	67.8	67.8	67.8	55	51.0	4	10	270	0.00	29.872 
18:25	67.9	67.9	67.9	51	49.1	2	5	270	0.00	29.872 
18:30	67.6	67.6	67.6	53	49.9	2	7	315	0.00	29.872 
18:35	67.6	67.6	67.6	54	50.4	1	3	292	0.00	29.872 
18:40	67.9	67.9	67.9	54	50.6	1	3	292	0.00	29.872 
18:45	68.1	68.1	68.1	50	48.7	2	5	292	0.00	29.871 
18:50	67.8	67.8	67.8	52	49.5	3	6	315	0.00	29.871 
18:55	67.4	67.4	67.4	54	50.2	2	6	338	0.00	29.871 
19:00	67.4	67.4	67.4	52	49.2	3	6	292	0.00	29.868 
19:05	67.3	67.3	67.3	53	49.6	3	7	315	0.00	29.868 
19:10	67.4	67.4	67.4	54	50.2	2	5	315	0.00	29.868 
19:15	67.3	67.3	67.3	54	50.1	2	6	315	0.00	29.867 
19:20	67.3	67.3	67.3	53	49.6	3	7	270	0.00	29.867 
19:25	67.1	67.1	67.1	53	49.4	3	9	292	0.00	29.867 
19:30	66.8	66.8	66.8	54	49.6	3	7	292	0.00	29.871 
19:35	66.3	66.3	66.3	55	49.6	2	6	270	0.00	29.871 
19:40	66.0	66.0	66.0	57	50.3	1	5	270	0.00	29.871 
19:45	66.1	66.1	66.1	56	49.9	2	5	315	0.00	29.875 
19:50	66.4	66.4	66.4	56	50.2	2	6	315	0.00	29.875 
19:55	66.4	66.4	66.4	54	49.2	3	6	292	0.00	29.875 
20:00	66.3	66.3	66.3	54	49.1	2	5	270	0.00	29.876 
20:05	66.3	66.3	66.3	54	49.1	1	3	315	0.00	29.876 
20:10	66.3	66.3	66.3	53	48.6	1	4	292	0.00	29.876 
20:15	66.0	66.0	66.0	54	48.9	3	6	292	0.00	29.879 
20:20	65.8	65.8	65.8	54	48.7	2	5	315	0.00	29.879 
20:25	65.6	65.6	65.6	55	49.0	2	6	315	0.00	29.879 
20:30	65.5	65.5	65.5	55	48.9	1	4	315	0.00	29.884 
20:35	65.3	65.3	65.3	54	48.2	2	6	338	0.00	29.884 
20:40	65.0	65.0	65.0	54	47.9	2	4	292	0.00	29.884 
20:45	64.7	64.7	64.7	55	48.2	1	3	292	0.00	29.886 
20:50	64.5	64.5	64.5	55	48.0	1	3	292	0.00	29.886 
20:55	64.3	64.3	64.3	56	48.3	1	3	338	0.00	29.886 
21:00	64.0	64.0	64.0	57	48.5	0	2	338	0.00	29.888 
21:05	63.9	63.9	63.9	57	48.4	0	2	338	0.00	29.888 
21:10	63.7	63.7	63.7	58	48.6	0	2	338	0.00	29.888 
21:15	63.4	63.4	63.4	58	48.4	0	1	338	0.00	29.887 
21:20	63.2	63.2	63.2	59	48.6	0	1	338	0.00	29.887 
21:25	63.1	63.1	63.1	59	48.5	0	1	338	0.00	29.887 
21:30	62.9	62.9	62.9	60	48.8	0	2	338	0.00	29.888 
21:35	62.7	62.7	62.7	61	49.1	0	1	338	0.00	29.888 
21:40	62.4	62.4	62.4	61	48.8	0	1	338	0.00	29.888 
21:45	62.3	62.3	62.3	62	49.1	0	1	338	0.00	29.890 
21:50	62.1	62.1	62.1	62	48.9	0	0	---	0.00	29.890 
21:55	61.8	61.8	61.8	63	49.1	0	0	---	0.00	29.890 
22:00	61.6	61.6	61.6	63	48.9	0	0	---	0.00	29.891 
22:05	61.3	61.3	61.3	64	49.0	0	0	---	0.00	29.891 
22:10	61.2	61.2	61.2	65	49.3	0	0	---	0.00	29.891 
22:15	61.0	61.0	61.0	65	49.1	0	0	---	0.00	29.901 
22:20	60.7	60.7	60.7	66	49.3	0	0	---	0.00	29.901 
22:25	60.4	60.4	60.4	67	49.4	0	0	---	0.00	29.901 
22:30	60.1	60.1	60.1	67	49.1	0	0	---	0.00	29.905 
22:35	59.8	59.8	59.8	69	49.6	0	0	---	0.00	29.905 
22:40	59.3	59.3	59.3	70	49.5	0	0	---	0.00	29.905 
22:45	59.0	59.0	59.0	71	49.6	0	0	---	0.00	29.907 
22:50	58.7	58.7	58.7	73	50.1	0	0	---	0.00	29.907 
22:55	58.4	58.4	58.4	73	49.8	0	0	---	0.00	29.907 
23:00	58.1	58.1	58.1	74	49.9	0	0	---	0.00	29.912 
23:05	58.0	58.0	58.0	75	50.1	0	0	---	0.00	29.912 
23:10	57.8	57.8	57.8	75	49.9	0	0	---	0.00	29.912 
23:15	57.6	57.6	57.6	76	50.1	0	0	---	0.00	29.913 
23:20	57.5	57.5	57.5	77	50.3	0	0	---	0.00	29.913 
23:25	57.2	57.2	57.2	77	50.1	0	0	---	0.00	29.913 
23:30	57.0	57.0	57.0	78	50.2	0	0	---	0.00	29.911 
23:35	56.7	56.7	56.7	79	50.3	0	0	---	0.00	29.911 
23:40	56.6	56.6	56.6	79	50.2	0	0	---	0.00	29.911 
23:45	56.5	56.5	56.5	80	50.4	0	0	---	0.00	29.913 
23:50	56.3	56.3	56.3	80	50.2	0	0	---	0.00	29.913 
23:55	56.2	56.2	56.2	81	50.4	0	0	---	0.00	29.913 

CoCoRaHS
IN-AL-39
A2 Web Hosting
Creative Commons License
GoDaddy
search engine by freefind advanced

loaded 2018-11-20 03:45:49 • last modified 2010-11-18 10:43:29
Privacy PolicyDisclaimer
• wx.awcolley.com is powered by PmWiki v.2002016 •
• all content (unless otherwise noted) © 2018 A W Colley